sensor_id;sensor_type;location;lat;lon;timestamp;pressure;altitude;pressure_sealevel;temperature;humidity
67345;BME280;54230;52.402;6.276;2022-09-09T00:00:00;100750.0;;;16.9;80.4
67345;BME280;54230;52.402;6.276;2022-09-09T00:05:12;100780.0;;;16.8;81.3
67345;BME280;54230;52.402;6.276;2022-09-09T00:10:05;100780.0;;;16.7;82.4
67345;BME280;54230;52.402;6.276;2022-09-09T00:15:03;100790.0;;;16.7;83.3
67345;BME280;54230;52.402;6.276;2022-09-09T00:20:02;100780.0;;;16.7;83.6
67345;BME280;54230;52.402;6.276;2022-09-09T00:25:08;100780.0;;;16.6;83.8
67345;BME280;54230;52.402;6.276;2022-09-09T00:30:12;100770.0;;;16.5;84.3
67345;BME280;54230;52.402;6.276;2022-09-09T00:35:04;100770.0;;;16.6;85.1
67345;BME280;54230;52.402;6.276;2022-09-09T00:40:02;100770.0;;;16.5;85.4
67345;BME280;54230;52.402;6.276;2022-09-09T00:45:07;100760.0;;;16.4;85.7
67345;BME280;54230;52.402;6.276;2022-09-09T00:50:03;100760.0;;;16.4;86.2
67345;BME280;54230;52.402;6.276;2022-09-09T00:55:06;100760.0;;;16.3;86.3
67345;BME280;54230;52.402;6.276;2022-09-09T01:00:20;100760.0;;;16.3;86.5
67345;BME280;54230;52.402;6.276;2022-09-09T01:05:04;100760.0;;;16.1;87.2
67345;BME280;54230;52.402;6.276;2022-09-09T01:10:03;100760.0;;;16.1;87.0
67345;BME280;54230;52.402;6.276;2022-09-09T01:15:08;100760.0;;;15.9;86.4
67345;BME280;54230;52.402;6.276;2022-09-09T01:20:08;100750.0;;;16.0;86.1
67345;BME280;54230;52.402;6.276;2022-09-09T01:30:00;100750.0;;;16.0;85.6
67345;BME280;54230;52.402;6.276;2022-09-09T01:35:00;100750.0;;;16.0;85.7
67345;BME280;54230;52.402;6.276;2022-09-09T01:40:00;100750.0;;;16.0;85.4
67345;BME280;54230;52.402;6.276;2022-09-09T01:45:00;100740.0;;;16.1;85.3
67345;BME280;54230;52.402;6.276;2022-09-09T01:50:00;100740.0;;;16.0;85.0
67345;BME280;54230;52.402;6.276;2022-09-09T01:55:00;100750.0;;;16.0;84.8
67345;BME280;54230;52.402;6.276;2022-09-09T02:00:03;100750.0;;;16.0;84.6
67345;BME280;54230;52.402;6.276;2022-09-09T02:05:11;100750.0;;;15.9;85.0
67345;BME280;54230;52.402;6.276;2022-09-09T02:10:05;100760.0;;;16.0;84.9
67345;BME280;54230;52.402;6.276;2022-09-09T02:15:04;100750.0;;;16.0;85.0
67345;BME280;54230;52.402;6.276;2022-09-09T02:20:03;100750.0;;;15.9;85.3
67345;BME280;54230;52.402;6.276;2022-09-09T02:25:00;100750.0;;;15.9;85.7
67345;BME280;54230;52.402;6.276;2022-09-09T02:30:00;100740.0;;;15.9;85.8
67345;BME280;54230;52.402;6.276;2022-09-09T02:35:02;100740.0;;;15.9;85.9
67345;BME280;54230;52.402;6.276;2022-09-09T02:40:00;100750.0;;;15.9;86.1
67345;BME280;54230;52.402;6.276;2022-09-09T02:45:00;100750.0;;;15.9;86.1
67345;BME280;54230;52.402;6.276;2022-09-09T02:50:08;100750.0;;;15.9;86.1
67345;BME280;54230;52.402;6.276;2022-09-09T02:55:05;100750.0;;;15.8;86.5
67345;BME280;54230;52.402;6.276;2022-09-09T03:00:00;100750.0;;;15.7;86.8
67345;BME280;54230;52.402;6.276;2022-09-09T03:05:00;100750.0;;;15.7;86.9
67345;BME280;54230;52.402;6.276;2022-09-09T03:10:00;100760.0;;;15.6;87.0
67345;BME280;54230;52.402;6.276;2022-09-09T03:15:00;100760.0;;;15.5;87.0
67345;BME280;54230;52.402;6.276;2022-09-09T03:20:00;100750.0;;;15.5;87.2
67345;BME280;54230;52.402;6.276;2022-09-09T03:25:00;100750.0;;;15.4;87.3
67345;BME280;54230;52.402;6.276;2022-09-09T03:30:00;100750.0;;;15.3;87.1
67345;BME280;54230;52.402;6.276;2022-09-09T03:35:00;100750.0;;;15.2;87.2
67345;BME280;54230;52.402;6.276;2022-09-09T03:40:00;100740.0;;;15.1;87.2
67345;BME280;54230;52.402;6.276;2022-09-09T03:45:00;100740.0;;;15.0;87.4
67345;BME280;54230;52.402;6.276;2022-09-09T03:50:00;100750.0;;;15.0;87.1
67345;BME280;54230;52.402;6.276;2022-09-09T03:55:00;100750.0;;;14.9;87.1
67345;BME280;54230;52.402;6.276;2022-09-09T04:00:00;100750.0;;;14.9;87.0
67345;BME280;54230;52.402;6.276;2022-09-09T04:05:00;100750.0;;;14.8;87.1
67345;BME280;54230;52.402;6.276;2022-09-09T04:10:00;100750.0;;;14.8;86.9
67345;BME280;54230;52.402;6.276;2022-09-09T04:15:00;100740.0;;;14.6;87.3
67345;BME280;54230;52.402;6.276;2022-09-09T04:20:00;100740.0;;;14.7;87.2
67345;BME280;54230;52.402;6.276;2022-09-09T04:25:00;100750.0;;;14.6;87.1
67345;BME280;54230;52.402;6.276;2022-09-09T04:30:00;100750.0;;;14.6;87.3
67345;BME280;54230;52.402;6.276;2022-09-09T04:35:00;100750.0;;;14.6;87.2
67345;BME280;54230;52.402;6.276;2022-09-09T04:40:00;100740.0;;;14.6;87.3
67345;BME280;54230;52.402;6.276;2022-09-09T04:45:00;100740.0;;;14.5;87.7
67345;BME280;54230;52.402;6.276;2022-09-09T04:50:00;100740.0;;;14.5;87.8
67345;BME280;54230;52.402;6.276;2022-09-09T04:55:00;100740.0;;;14.5;88.0
67345;BME280;54230;52.402;6.276;2022-09-09T05:00:00;100730.0;;;14.4;88.2
67345;BME280;54230;52.402;6.276;2022-09-09T05:05:00;100740.0;;;14.5;88.5
67345;BME280;54230;52.402;6.276;2022-09-09T05:10:00;100740.0;;;14.6;88.4
67345;BME280;54230;52.402;6.276;2022-09-09T05:15:00;100740.0;;;14.6;88.4
67345;BME280;54230;52.402;6.276;2022-09-09T05:20:00;100740.0;;;14.7;88.2
67345;BME280;54230;52.402;6.276;2022-09-09T05:25:00;100730.0;;;14.8;88.0
67345;BME280;54230;52.402;6.276;2022-09-09T05:30:00;100730.0;;;14.8;87.9
67345;BME280;54230;52.402;6.276;2022-09-09T05:35:00;100730.0;;;14.9;87.8
67345;BME280;54230;52.402;6.276;2022-09-09T05:40:00;100730.0;;;15.0;unknown
67345;BME280;54230;52.402;6.276;2022-09-09T05:45:00;100730.0;;;15.0;87.5
67345;BME280;54230;52.402;6.276;2022-09-09T05:50:00;100720.0;;;15.1;87.3
67345;BME280;54230;52.402;6.276;2022-09-09T05:55:00;100730.0;;;15.0;87.6
67345;BME280;54230;52.402;6.276;2022-09-09T06:00:00;100730.0;;;15.2;87.4
67345;BME280;54230;52.402;6.276;2022-09-09T06:05:00;100730.0;;;15.2;87.1
67345;BME280;54230;52.402;6.276;2022-09-09T06:10:00;100740.0;;;15.2;87.1
67345;BME280;54230;52.402;6.276;2022-09-09T06:15:00;100750.0;;;15.1;87.6
67345;BME280;54230;52.402;6.276;2022-09-09T06:20:00;100740.0;;;15.2;87.9
67345;BME280;54230;52.402;6.276;2022-09-09T06:25:00;100740.0;;;15.2;88.2
67345;BME280;54230;52.402;6.276;2022-09-09T06:30:00;100740.0;;;15.3;87.6
67345;BME280;54230;52.402;6.276;2022-09-09T06:35:00;100730.0;;;15.5;87.5
67345;BME280;54230;52.402;6.276;2022-09-09T06:40:00;100740.0;;;15.5;87.2
67345;BME280;54230;52.402;6.276;2022-09-09T06:45:00;100730.0;;;15.6;87.1
67345;BME280;54230;52.402;6.276;2022-09-09T06:50:00;100740.0;;;15.9;86.3
67345;BME280;54230;52.402;6.276;2022-09-09T06:55:00;100740.0;;;16.0;85.6
67345;BME280;54230;52.402;6.276;2022-09-09T07:00:00;100730.0;;;15.9;85.9
67345;BME280;54230;52.402;6.276;2022-09-09T07:05:00;100740.0;;;16.1;85.5
67345;BME280;54230;52.402;6.276;2022-09-09T07:10:00;100740.0;;;16.1;85.8
67345;BME280;54230;52.402;6.276;2022-09-09T07:15:00;100740.0;;;16.0;86.2
67345;BME280;54230;52.402;6.276;2022-09-09T07:20:00;100740.0;;;16.2;86.2
67345;BME280;54230;52.402;6.276;2022-09-09T07:25:00;100740.0;;;16.3;85.7
67345;BME280;54230;52.402;6.276;2022-09-09T09:15:00;100780.0;;;18.8;74.3
67345;BME280;54230;52.402;6.276;2022-09-09T09:20:00;100770.0;;;19.3;72.6
67345;BME280;54230;52.402;6.276;2022-09-09T09:25:04;100780.0;;;19.5;70.8
67345;BME280;54230;52.402;6.276;2022-09-09T09:30:02;100790.0;;;19.3;70.4
67345;BME280;54230;52.402;6.276;2022-09-09T09:35:01;100780.0;;;19.1;70.6
67345;BME280;54230;52.402;6.276;2022-09-09T09:40:08;100780.0;;;19.1;70.1
67345;BME280;54230;52.402;6.276;2022-09-09T09:45:07;100780.0;;;18.9;71.0
67345;BME280;54230;52.402;6.276;2022-09-09T09:50:00;100790.0;;;18.8;70.2
67345;BME280;54230;52.402;6.276;2022-09-09T09:55:03;100790.0;;;18.6;71.0
67345;BME280;54230;52.402;6.276;2022-09-09T10:00:02;100790.0;;;18.7;70.8
67345;BME280;54230;52.402;6.276;2022-09-09T10:05:01;100800.0;;;18.6;71.6
67345;BME280;54230;52.402;6.276;2022-09-09T10:10:00;100800.0;;;18.8;70.6
67345;BME280;54230;52.402;6.276;2022-09-09T10:15:04;100790.0;;;19.2;68.8
67345;BME280;54230;52.402;6.276;2022-09-09T10:20:15;100800.0;;;19.3;68.5
67345;BME280;54230;52.402;6.276;2022-09-09T10:25:13;100790.0;;;18.8;69.4
67345;BME280;54230;52.402;6.276;2022-09-09T10:30:04;100800.0;;;18.9;69.0
67345;BME280;54230;52.402;6.276;2022-09-09T10:35:03;100790.0;;;19.0;68.1
67345;BME280;54230;52.402;6.276;2022-09-09T10:40:04;100790.0;;;19.4;67.3
67345;BME280;54230;52.402;6.276;2022-09-09T10:45:10;100780.0;;;19.5;67.0
67345;BME280;54230;52.402;6.276;2022-09-09T10:50:11;100780.0;;;19.3;67.5
67345;BME280;54230;52.402;6.276;2022-09-09T10:55:06;100780.0;;;19.0;69.1
67345;BME280;54230;52.402;6.276;2022-09-09T11:00:03;100780.0;;;19.7;68.2
67345;BME280;54230;52.402;6.276;2022-09-09T11:05:03;100770.0;;;20.3;66.1
67345;BME280;54230;52.402;6.276;2022-09-09T11:10:02;100770.0;;;20.2;66.0
67345;BME280;54230;52.402;6.276;2022-09-09T11:15:04;100770.0;;;19.9;66.5
67345;BME280;54230;52.402;6.276;2022-09-09T11:20:00;100770.0;;;20.0;66.4
67345;BME280;54230;52.402;6.276;2022-09-09T11:25:04;100770.0;;;19.9;64.2
67345;BME280;54230;52.402;6.276;2022-09-09T11:30:14;100770.0;;;20.0;64.3
67345;BME280;54230;52.402;6.276;2022-09-09T11:35:09;100780.0;;;19.6;64.3
67345;BME280;54230;52.402;6.276;2022-09-09T11:40:08;100780.0;;;19.3;66.2
67345;BME280;54230;52.402;6.276;2022-09-09T11:45:09;100770.0;;;19.5;65.8
67345;BME280;54230;52.402;6.276;2022-09-09T11:50:11;100760.0;;;19.7;65.0
67345;BME280;54230;52.402;6.276;2022-09-09T11:55:08;100780.0;;;19.8;64.4
67345;BME280;54230;52.402;6.276;2022-09-09T12:00:00;100780.0;;;19.6;67.7
67345;BME280;54230;52.402;6.276;2022-09-09T12:05:02;100770.0;;;19.6;70.2
67345;BME280;54230;52.402;6.276;2022-09-09T12:10:04;100770.0;;;19.7;69.3
67345;BME280;54230;52.402;6.276;2022-09-09T12:15:03;100760.0;;;19.8;69.4
67345;BME280;54230;52.402;6.276;2022-09-09T12:20:02;100760.0;;;20.5;66.0
67345;BME280;54230;52.402;6.276;2022-09-09T12:25:08;100770.0;;;20.1;65.4
67345;BME280;54230;52.402;6.276;2022-09-09T12:30:03;100780.0;;;19.2;71.3
67345;BME280;54230;52.402;6.276;2022-09-09T12:35:03;100780.0;;;18.9;73.8
67345;BME280;54230;52.402;6.276;2022-09-09T12:40:02;100780.0;;;19.3;75.8
67345;BME280;54230;52.402;6.276;2022-09-09T12:45:01;100770.0;;;19.7;73.0
67345;BME280;54230;52.402;6.276;2022-09-09T12:50:00;100760.0;;;19.4;72.9
67345;BME280;54230;52.402;6.276;2022-09-09T12:55:02;100770.0;;;19.5;73.9
67345;BME280;54230;52.402;6.276;2022-09-09T13:00:07;100760.0;;;20.0;71.7
67345;BME280;54230;52.402;6.276;2022-09-09T13:05:08;100760.0;;;20.0;70.4
67345;BME280;54230;52.402;6.276;2022-09-09T13:10:00;100760.0;;;20.0;69.9
67345;BME280;54230;52.402;6.276;2022-09-09T13:15:00;100750.0;;;20.1;70.0
67345;BME280;54230;52.402;6.276;2022-09-09T13:20:00;100750.0;;;20.4;67.3
67345;BME280;54230;52.402;6.276;2022-09-09T13:25:03;100750.0;;;20.3;67.3
67345;BME280;54230;52.402;6.276;2022-09-09T13:30:00;100750.0;;;20.1;67.8
67345;BME280;54230;52.402;6.276;2022-09-09T13:35:01;100750.0;;;20.2;67.7
67345;BME280;54230;52.402;6.276;2022-09-09T13:40:00;100740.0;;;20.3;67.4
67345;BME280;54230;52.402;6.276;2022-09-09T13:45:00;100730.0;;;21.0;66.1
67345;BME280;54230;52.402;6.276;2022-09-09T13:50:10;100730.0;;;21.2;64.4
67345;BME280;54230;52.402;6.276;2022-09-09T13:55:00;100730.0;;;21.1;64.0
67345;BME280;54230;52.402;6.276;2022-09-09T14:00:00;100740.0;;;20.8;65.1
67345;BME280;54230;52.402;6.276;2022-09-09T14:05:00;100740.0;;;20.7;65.5
67345;BME280;54230;52.402;6.276;2022-09-09T14:10:00;100730.0;;;20.7;65.9
67345;BME280;54230;52.402;6.276;2022-09-09T14:15:00;100730.0;;;20.7;65.2
67345;BME280;54230;52.402;6.276;2022-09-09T14:20:00;100740.0;;;20.1;66.9
67345;BME280;54230;52.402;6.276;2022-09-09T14:25:00;100740.0;;;19.9;69.5
67345;BME280;54230;52.402;6.276;2022-09-09T14:30:00;100750.0;;;19.4;72.8
67345;BME280;54230;52.402;6.276;2022-09-09T14:35:00;100740.0;;;19.7;74.8
67345;BME280;54230;52.402;6.276;2022-09-09T14:40:00;100750.0;;;20.9;73.5
67345;BME280;54230;52.402;6.276;2022-09-09T14:45:00;100740.0;;;21.4;71.3
67345;BME280;54230;52.402;6.276;2022-09-09T14:50:00;100730.0;;;21.2;69.1
67345;BME280;54230;52.402;6.276;2022-09-09T14:55:00;100730.0;;;20.8;68.5
67345;BME280;54230;52.402;6.276;2022-09-09T15:00:00;100730.0;;;21.0;69.1
67345;BME280;54230;52.402;6.276;2022-09-09T15:05:00;100730.0;;;21.4;66.5
67345;BME280;54230;52.402;6.276;2022-09-09T15:10:00;100730.0;;;20.9;65.6
67345;BME280;54230;52.402;6.276;2022-09-09T15:15:00;100730.0;;;20.7;66.9
67345;BME280;54230;52.402;6.276;2022-09-09T15:20:00;100730.0;;;20.6;66.7
67345;BME280;54230;52.402;6.276;2022-09-09T15:25:00;100730.0;;;21.4;64.5
67345;BME280;54230;52.402;6.276;2022-09-09T15:30:00;100720.0;;;21.4;63.9
67345;BME280;54230;52.402;6.276;2022-09-09T15:35:00;100730.0;;;21.0;65.1
67345;BME280;54230;52.402;6.276;2022-09-09T15:40:00;100720.0;;;21.8;62.5
67345;BME280;54230;52.402;6.276;2022-09-09T15:45:00;100720.0;;;21.1;64.4
67345;BME280;54230;52.402;6.276;2022-09-09T15:50:00;100720.0;;;20.7;66.4
67345;BME280;54230;52.402;6.276;2022-09-09T15:55:00;100720.0;;;20.2;68.3
67345;BME280;54230;52.402;6.276;2022-09-09T16:00:00;100720.0;;;19.9;69.2
67345;BME280;54230;52.402;6.276;2022-09-09T16:05:00;100730.0;;;19.7;70.7
67345;BME280;54230;52.402;6.276;2022-09-09T16:10:00;100720.0;;;19.6;71.4
67345;BME280;54230;52.402;6.276;2022-09-09T16:15:00;100720.0;;;19.8;71.2
67345;BME280;54230;52.402;6.276;2022-09-09T16:20:00;100720.0;;;20.0;70.8
67345;BME280;54230;52.402;6.276;2022-09-09T16:25:00;100720.0;;;20.1;70.6
67345;BME280;54230;52.402;6.276;2022-09-09T16:30:00;100720.0;;;20.1;70.9
67345;BME280;54230;52.402;6.276;2022-09-09T16:35:00;100720.0;;;19.9;71.7
67345;BME280;54230;52.402;6.276;2022-09-09T16:40:00;100730.0;;;19.7;72.6
67345;BME280;54230;52.402;6.276;2022-09-09T16:45:00;100730.0;;;19.6;73.1
67345;BME280;54230;52.402;6.276;2022-09-09T16:50:00;100740.0;;;19.5;73.1
67345;BME280;54230;52.402;6.276;2022-09-09T16:55:00;100730.0;;;19.5;73.2
67345;BME280;54230;52.402;6.276;2022-09-09T17:00:00;100730.0;;;19.5;73.0
67345;BME280;54230;52.402;6.276;2022-09-09T17:05:00;100730.0;;;19.4;73.4
67345;BME280;54230;52.402;6.276;2022-09-09T17:10:00;100720.0;;;19.3;73.2
67345;BME280;54230;52.402;6.276;2022-09-09T17:15:00;100740.0;;;19.5;73.1
67345;BME280;54230;52.402;6.276;2022-09-09T17:20:00;100750.0;;;19.5;72.8
67345;BME280;54230;52.402;6.276;2022-09-09T17:25:00;100750.0;;;19.7;72.0
67345;BME280;54230;52.402;6.276;2022-09-09T17:30:00;100760.0;;;19.7;72.1
67345;BME280;54230;52.402;6.276;2022-09-09T17:35:00;100750.0;;;19.8;72.8
67345;BME280;54230;52.402;6.276;2022-09-09T17:40:01;100760.0;;;19.5;73.5
67345;BME280;54230;52.402;6.276;2022-09-09T17:45:00;100750.0;;;19.3;74.7
67345;BME280;54230;52.402;6.276;2022-09-09T17:50:00;100760.0;;;19.1;75.4
67345;BME280;54230;52.402;6.276;2022-09-09T17:55:00;100770.0;;;18.9;76.0
67345;BME280;54230;52.402;6.276;2022-09-09T18:00:00;100770.0;;;18.6;76.4
67345;BME280;54230;52.402;6.276;2022-09-09T18:05:00;100780.0;;;18.4;76.6
67345;BME280;54230;52.402;6.276;2022-09-09T18:10:00;100790.0;;;18.4;76.6
67345;BME280;54230;52.402;6.276;2022-09-09T18:15:00;100800.0;;;18.3;77.4
67345;BME280;54230;52.402;6.276;2022-09-09T18:20:00;100810.0;;;18.1;77.8
67345;BME280;54230;52.402;6.276;2022-09-09T18:25:00;100810.0;;;17.9;78.8
67345;BME280;54230;52.402;6.276;2022-09-09T18:30:00;100820.0;;;17.9;79.0
67345;BME280;54230;52.402;6.276;2022-09-09T18:35:00;100820.0;;;17.7;79.1
67345;BME280;54230;52.402;6.276;2022-09-09T18:40:00;100810.0;;;17.5;79.0
67345;BME280;54230;52.402;6.276;2022-09-09T18:45:00;100820.0;;;17.5;78.7
67345;BME280;54230;52.402;6.276;2022-09-09T18:50:00;100830.0;;;17.5;78.6
67345;BME280;54230;52.402;6.276;2022-09-09T18:55:00;100830.0;;;17.4;78.6
67345;BME280;54230;52.402;6.276;2022-09-09T19:00:00;100840.0;;;17.4;78.5
67345;BME280;54230;52.402;6.276;2022-09-09T19:05:00;100850.0;;;17.3;78.6
67345;BME280;54230;52.402;6.276;2022-09-09T19:10:00;100840.0;;;17.2;78.9
67345;BME280;54230;52.402;6.276;2022-09-09T19:15:00;100850.0;;;17.2;79.1
67345;BME280;54230;52.402;6.276;2022-09-09T19:20:00;100850.0;;;17.1;79.6
67345;BME280;54230;52.402;6.276;2022-09-09T19:25:00;100850.0;;;16.9;80.8
67345;BME280;54230;52.402;6.276;2022-09-09T19:30:00;100860.0;;;16.9;80.8
67345;BME280;54230;52.402;6.276;2022-09-09T19:35:00;100860.0;;;17.0;81.0
67345;BME280;54230;52.402;6.276;2022-09-09T19:40:00;100870.0;;;16.9;81.5
67345;BME280;54230;52.402;6.276;2022-09-09T19:45:00;100870.0;;;16.9;81.9
67345;BME280;54230;52.402;6.276;2022-09-09T19:50:00;100870.0;;;16.9;82.2
67345;BME280;54230;52.402;6.276;2022-09-09T19:55:00;100870.0;;;16.8;82.1
67345;BME280;54230;52.402;6.276;2022-09-09T20:00:00;100860.0;;;16.7;82.8
67345;BME280;54230;52.402;6.276;2022-09-09T20:05:00;100870.0;;;16.7;82.6
67345;BME280;54230;52.402;6.276;2022-09-09T20:10:00;100870.0;;;16.6;82.8
67345;BME280;54230;52.402;6.276;2022-09-09T20:15:00;100880.0;;;16.7;82.2
67345;BME280;54230;52.402;6.276;2022-09-09T20:20:00;100870.0;;;16.7;82.3
67345;BME280;54230;52.402;6.276;2022-09-09T20:25:00;100870.0;;;16.7;82.1
67345;BME280;54230;52.402;6.276;2022-09-09T20:30:00;100880.0;;;16.7;82.3
67345;BME280;54230;52.402;6.276;2022-09-09T20:35:00;100880.0;;;16.7;82.1
67345;BME280;54230;52.402;6.276;2022-09-09T20:40:00;100890.0;;;16.6;82.3
67345;BME280;54230;52.402;6.276;2022-09-09T20:45:00;100890.0;;;16.6;82.6
67345;BME280;54230;52.402;6.276;2022-09-09T20:50:00;100880.0;;;16.5;82.9
67345;BME280;54230;52.402;6.276;2022-09-09T20:55:00;100880.0;;;16.5;82.8
67345;BME280;54230;52.402;6.276;2022-09-09T21:00:00;100880.0;;;16.4;83.1
67345;BME280;54230;52.402;6.276;2022-09-09T21:05:00;100880.0;;;16.4;83.4
67345;BME280;54230;52.402;6.276;2022-09-09T21:10:00;100890.0;;;16.2;84.4
67345;BME280;54230;52.402;6.276;2022-09-09T21:15:00;100890.0;;;16.2;84.3
67345;BME280;54230;52.402;6.276;2022-09-09T21:20:00;100890.0;;;16.3;84.2
67345;BME280;54230;52.402;6.276;2022-09-09T21:25:00;100890.0;;;16.2;84.3
67345;BME280;54230;52.402;6.276;2022-09-09T21:30:00;100900.0;;;16.2;84.7
67345;BME280;54230;52.402;6.276;2022-09-09T21:35:00;100890.0;;;16.2;84.9
67345;BME280;54230;52.402;6.276;2022-09-09T21:40:00;100890.0;;;16.2;84.9
67345;BME280;54230;52.402;6.276;2022-09-09T21:45:00;100900.0;;;16.1;85.1
67345;BME280;54230;52.402;6.276;2022-09-09T21:50:00;100880.0;;;16.0;85.3
67345;BME280;54230;52.402;6.276;2022-09-09T21:55:00;100900.0;;;15.9;85.6
67345;BME280;54230;52.402;6.276;2022-09-09T22:00:00;100890.0;;;15.8;86.1
67345;BME280;54230;52.402;6.276;2022-09-09T22:05:00;100890.0;;;15.8;86.4
67345;BME280;54230;52.402;6.276;2022-09-09T22:10:00;100880.0;;;15.6;87.1
67345;BME280;54230;52.402;6.276;2022-09-09T22:15:00;100890.0;;;15.6;87.6
67345;BME280;54230;52.402;6.276;2022-09-09T22:20:00;100900.0;;;15.5;88.0
67345;BME280;54230;52.402;6.276;2022-09-09T22:25:00;100900.0;;;15.5;88.0
67345;BME280;54230;52.402;6.276;2022-09-09T22:30:00;100900.0;;;15.5;88.2
67345;BME280;54230;52.402;6.276;2022-09-09T22:35:00;100900.0;;;15.4;88.4
67345;BME280;54230;52.402;6.276;2022-09-09T22:40:00;100900.0;;;15.4;88.7
67345;BME280;54230;52.402;6.276;2022-09-09T22:45:00;100900.0;;;15.4;88.8
67345;BME280;54230;52.402;6.276;2022-09-09T22:50:00;100900.0;;;15.4;89.2
67345;BME280;54230;52.402;6.276;2022-09-09T22:55:00;100900.0;;;15.3;89.0
67345;BME280;54230;52.402;6.276;2022-09-09T23:00:00;100910.0;;;15.3;89.5
67345;BME280;54230;52.402;6.276;2022-09-09T23:05:00;100900.0;;;15.2;89.7
67345;BME280;54230;52.402;6.276;2022-09-09T23:10:00;100910.0;;;15.2;90.0
67345;BME280;54230;52.402;6.276;2022-09-09T23:15:00;100910.0;;;15.1;90.4
67345;BME280;54230;52.402;6.276;2022-09-09T23:20:00;100920.0;;;15.2;90.4
67345;BME280;54230;52.402;6.276;2022-09-09T23:25:00;100910.0;;;15.2;90.4
67345;BME280;54230;52.402;6.276;2022-09-09T23:30:00;100910.0;;;15.2;90.6
67345;BME280;54230;52.402;6.276;2022-09-09T23:35:00;100910.0;;;15.2;90.4
67345;BME280;54230;52.402;6.276;2022-09-09T23:40:00;100920.0;;;15.2;90.6
67345;BME280;54230;52.402;6.276;2022-09-09T23:45:00;100920.0;;;15.2;90.8
67345;BME280;54230;52.402;6.276;2022-09-09T23:50:00;100920.0;;;15.1;91.1
67345;BME280;54230;52.402;6.276;2022-09-09T23:55:00;100920.0;;;15.1;91.3
